createdAt,value
2018-05-02T00:00:36.700Z,71.10
2018-05-02T00:03:05.603Z,70.70
2018-05-02T00:05:34.504Z,70.80
2018-05-02T00:08:03.379Z,71.90
2018-05-02T00:10:32.298Z,73.70
2018-05-02T00:13:01.188Z,75.60
2018-05-02T00:15:30.057Z,75.70
2018-05-02T00:17:58.965Z,74.50
2018-05-02T00:20:27.887Z,73.40
2018-05-02T00:22:57.520Z,72.00
2018-05-02T00:25:26.392Z,71.90
2018-05-02T00:27:55.314Z,72.60
2018-05-02T00:30:24.191Z,73.40
2018-05-02T00:32:53.871Z,72.10
2018-05-02T00:35:23.555Z,71.50
2018-05-02T00:37:52.428Z,71.50
2018-05-02T00:40:21.336Z,70.80
2018-05-02T00:42:50.973Z,70.60
2018-05-02T00:45:21.125Z,70.50
2018-05-02T00:47:50.767Z,73.10
2018-05-02T00:50:19.652Z,73.10
2018-05-02T00:52:48.545Z,73.90
2018-05-02T00:55:17.527Z,75.40
2018-05-02T00:57:46.395Z,77.20
2018-05-02T01:00:16.197Z,77.20
2018-05-02T01:02:45.074Z,78.00
2018-05-02T01:05:13.935Z,78.30
2018-05-02T01:07:42.844Z,77.60
2018-05-02T01:10:12.512Z,77.80
2018-05-02T01:12:41.398Z,77.70
2018-05-02T01:15:10.276Z,77.30
2018-05-02T01:17:39.145Z,76.70
2018-05-02T01:20:08.050Z,76.80
2018-05-02T01:22:36.914Z,75.10
2018-05-02T01:25:06.546Z,75.60
2018-05-02T01:27:35.464Z,75.60
2018-05-02T01:30:04.351Z,76.60
2018-05-02T01:32:34.018Z,76.80
2018-05-02T01:35:02.905Z,76.70
2018-05-02T01:37:31.777Z,77.10
2018-05-02T01:40:00.679Z,77.40
2018-05-02T01:42:29.572Z,77.70
2018-05-02T01:44:58.443Z,79.90
2018-05-02T01:47:27.307Z,80.10
2018-05-02T01:49:56.207Z,79.40
2018-05-02T01:52:25.073Z,79.60
2018-05-02T01:54:53.936Z,78.80
2018-05-02T01:57:22.829Z,77.60
2018-05-02T01:59:51.726Z,77.30
2018-05-02T02:02:21.403Z,76.00
2018-05-02T02:04:50.288Z,76.00
2018-05-02T02:07:19.160Z,75.30
2018-05-02T02:09:48.090Z,75.90
2018-05-02T02:12:17.787Z,75.50
2018-05-02T02:14:48.637Z,76.90
2018-05-02T02:17:17.621Z,76.70
2018-05-02T02:19:46.483Z,78.10
2018-05-02T02:22:15.364Z,79.20
2018-05-02T02:24:44.228Z,79.90
2018-05-02T02:27:13.115Z,80.00
2018-05-02T02:29:42.008Z,79.70
2018-05-02T02:32:10.874Z,79.40
2018-05-02T02:34:39.777Z,79.30
2018-05-02T02:37:08.644Z,78.90
2018-05-02T02:39:37.511Z,78.10
2018-05-02T02:42:06.425Z,78.20
2018-05-02T02:44:36.068Z,78.90
2018-05-02T02:47:04.942Z,78.90
2018-05-02T02:49:33.846Z,78.20
2018-05-02T02:52:03.500Z,76.80
2018-05-02T02:54:32.407Z,76.70
2018-05-02T02:57:01.285Z,77.00
2018-05-02T02:59:30.183Z,77.10
2018-05-02T03:01:59.885Z,77.40
2018-05-02T03:04:28.756Z,76.50
2018-05-02T03:06:58.392Z,77.20
2018-05-02T03:09:27.294Z,77.10
2018-05-02T03:11:56.204Z,76.20
2018-05-02T03:14:26.275Z,76.00
2018-05-02T03:16:55.331Z,76.90
2018-05-02T03:19:24.229Z,76.90
2018-05-02T03:21:53.099Z,78.40
2018-05-02T03:24:21.969Z,78.00
2018-05-02T03:26:50.874Z,78.00
2018-05-02T03:29:20.520Z,78.20
2018-05-02T03:31:49.394Z,78.10
2018-05-02T03:34:18.282Z,78.60
2018-05-02T03:36:47.147Z,79.20
2018-05-02T03:39:16.013Z,79.50
2018-05-02T03:41:44.931Z,80.00
2018-05-02T03:44:14.555Z,80.40
2018-05-02T03:46:43.435Z,80.10
2018-05-02T03:49:12.340Z,80.90
2018-05-02T03:51:41.235Z,81.30
2018-05-02T03:54:10.163Z,81.40
2018-05-02T03:56:39.043Z,81.90
2018-05-02T03:59:07.920Z,81.90
2018-05-02T04:01:54.562Z,82.30
2018-05-02T04:04:42.005Z,82.40
2018-05-02T04:07:14.920Z,82.40
2018-05-02T04:09:43.798Z,82.40
2018-05-02T04:12:12.706Z,81.60
2018-05-02T04:14:42.365Z,81.20
2018-05-02T04:17:11.244Z,81.10
2018-05-02T04:19:40.139Z,80.90
2018-05-02T04:22:09.782Z,80.20
2018-05-02T04:24:38.677Z,80.20
2018-05-02T04:27:07.575Z,78.80
2018-05-02T04:29:37.226Z,78.30
2018-05-02T04:32:06.099Z,78.20
2018-05-02T04:34:35.002Z,76.80
2018-05-02T04:37:03.897Z,74.50
2018-05-02T04:39:33.564Z,75.10
2018-05-02T04:42:02.437Z,75.00
2018-05-02T04:44:31.318Z,72.30
2018-05-02T04:47:00.228Z,69.20
2018-05-02T04:49:29.111Z,68.40
2018-05-02T04:51:57.982Z,66.70
2018-05-02T04:54:26.889Z,64.20
2018-05-02T04:56:55.806Z,64.70
2018-05-02T04:59:25.517Z,61.80
2018-05-02T05:01:54.367Z,61.70
2018-05-02T05:04:23.264Z,59.40
2018-05-02T05:06:52.135Z,59.00
2018-05-02T05:09:21.053Z,58.20
2018-05-02T05:11:49.928Z,58.70
2018-05-02T05:14:20.011Z,59.60
2018-05-02T05:16:48.967Z,59.70
2018-05-02T05:19:17.835Z,60.10
2018-05-02T05:21:47.494Z,61.00
2018-05-02T05:24:16.394Z,61.00
2018-05-02T05:26:46.043Z,63.30
2018-05-02T05:29:14.951Z,63.30
2018-05-02T05:31:43.815Z,65.20
2018-05-02T05:34:12.698Z,67.00
2018-05-02T05:36:41.595Z,67.40
2018-05-02T05:39:11.232Z,66.60
2018-05-02T05:41:40.108Z,66.60
2018-05-02T05:44:09.036Z,65.40
2018-05-02T05:46:38.675Z,64.00
2018-05-02T05:49:07.545Z,64.00
2018-05-02T05:51:36.452Z,60.90
2018-05-02T05:54:05.364Z,59.20
2018-05-02T05:56:34.267Z,57.60
2018-05-02T05:59:03.141Z,55.50
2018-05-02T06:01:32.058Z,55.20
2018-05-02T06:04:00.924Z,54.60
2018-05-02T06:06:29.792Z,53.50
2018-05-02T06:08:59.450Z,51.00
2018-05-02T06:11:28.329Z,51.10
2018-05-02T06:13:57.221Z,50.30
2018-05-02T06:16:26.104Z,51.80
2018-05-02T06:18:54.997Z,52.90
2018-05-02T06:21:23.876Z,51.40
2018-05-02T06:23:53.616Z,50.70
2018-05-02T06:26:22.483Z,50.40
2018-05-02T06:28:51.353Z,48.70
2018-05-02T06:31:20.255Z,49.80
2018-05-02T06:33:49.672Z,48.30
2018-05-02T06:36:18.548Z,49.20
2018-05-02T06:38:47.440Z,48.10
2018-05-02T06:41:17.111Z,45.80
2018-05-02T06:43:45.995Z,45.80
2018-05-02T06:46:15.960Z,44.60
2018-05-02T06:48:44.859Z,44.60
2018-05-02T06:51:13.735Z,44.30
2018-05-02T06:53:42.600Z,44.30
2018-05-02T06:56:11.519Z,44.40
2018-05-02T06:58:41.196Z,43.60
2018-05-02T07:01:10.063Z,43.60
2018-05-02T07:03:38.934Z,42.50
2018-05-02T07:06:07.828Z,42.50
2018-05-02T07:08:37.467Z,40.70
2018-05-02T07:11:06.375Z,40.70
2018-05-02T07:13:35.248Z,40.50
2018-05-02T07:16:04.935Z,40.50
2018-05-02T07:18:33.847Z,40.50
2018-05-02T07:21:03.503Z,40.90
2018-05-02T07:23:32.379Z,40.90
2018-05-02T07:26:01.307Z,42.60
2018-05-02T07:28:30.214Z,42.00
2018-05-02T07:30:59.083Z,42.40
2018-05-02T07:33:27.955Z,42.90
2018-05-02T07:35:56.871Z,39.90
2018-05-02T07:38:25.740Z,40.10
2018-05-02T07:40:54.610Z,38.30
2018-05-02T07:43:23.515Z,39.30
2018-05-02T07:45:53.171Z,38.50
2018-05-02T07:48:22.059Z,38.60
2018-05-02T07:50:50.947Z,39.00
2018-05-02T07:53:20.584Z,39.80
2018-05-02T07:55:49.480Z,39.80
2018-05-02T07:58:18.358Z,41.10
2018-05-02T08:00:47.247Z,40.20
2018-05-02T08:03:16.141Z,40.90
2018-05-02T08:05:45.795Z,38.40
2018-05-02T08:08:14.688Z,38.40
2018-05-02T08:10:43.556Z,37.20
2018-05-02T08:13:13.253Z,37.00
2018-05-02T08:15:42.117Z,37.60
2018-05-02T08:18:11.004Z,35.90
2018-05-02T08:20:39.899Z,35.40
2018-05-02T08:23:08.835Z,35.30
2018-05-02T08:25:37.717Z,35.00
2018-05-02T08:28:06.591Z,37.60
2018-05-02T08:30:35.499Z,36.20
2018-05-02T08:33:05.147Z,34.60
2018-05-02T08:35:34.019Z,34.60
2018-05-02T08:38:02.912Z,34.80
2018-05-02T08:40:31.780Z,35.70
2018-05-02T08:43:00.672Z,38.00
2018-05-02T08:45:29.566Z,38.40
2018-05-02T08:47:59.208Z,37.50
2018-05-02T08:50:28.109Z,37.50
2018-05-02T08:52:56.998Z,37.00
2018-05-02T08:55:25.887Z,37.60
2018-05-02T08:57:55.515Z,37.20
2018-05-02T09:00:24.404Z,37.20
2018-05-02T09:02:53.335Z,36.70
2018-05-02T09:05:22.219Z,37.00
2018-05-02T09:07:51.091Z,39.10
2018-05-02T09:10:20.015Z,38.80
2018-05-02T09:12:48.899Z,39.80
2018-05-02T09:15:18.105Z,40.90
2018-05-02T09:17:47.763Z,42.90
2018-05-02T09:20:16.667Z,42.90
2018-05-02T09:22:46.311Z,42.80
2018-05-02T09:25:15.185Z,42.70
2018-05-02T09:27:44.081Z,44.00
2018-05-02T09:30:12.947Z,43.00
2018-05-02T09:32:41.867Z,43.20
2018-05-02T09:35:10.744Z,43.90
2018-05-02T09:37:40.376Z,43.80
2018-05-02T09:40:09.291Z,43.80
2018-05-02T09:42:38.180Z,43.10
2018-05-02T09:45:07.822Z,44.00
2018-05-02T09:47:36.723Z,44.00
2018-05-02T09:50:05.600Z,43.80
2018-05-02T09:52:34.512Z,43.90
2018-05-02T09:55:03.416Z,45.20
2018-05-02T09:57:32.291Z,45.30
2018-05-02T10:00:01.213Z,44.00
2018-05-02T10:02:30.090Z,43.80
2018-05-02T10:04:58.970Z,45.20
2018-05-02T10:07:28.627Z,43.40
2018-05-02T10:09:57.519Z,43.40
2018-05-02T10:12:26.435Z,45.70
2018-05-02T10:14:55.291Z,44.10
2018-05-02T10:17:24.955Z,46.10
2018-05-02T10:19:53.825Z,46.10
2018-05-02T10:22:24.238Z,46.30
2018-05-02T10:24:53.109Z,46.20
2018-05-02T10:27:21.989Z,46.30
2018-05-02T10:29:50.898Z,47.20
2018-05-02T10:32:20.541Z,47.70
2018-05-02T10:34:49.413Z,47.70
2018-05-02T10:37:18.311Z,46.00
2018-05-02T10:39:47.183Z,45.90
2018-05-02T10:42:16.055Z,49.90
2018-05-02T10:44:44.944Z,48.10
2018-05-02T10:47:13.816Z,49.10
2018-05-02T10:49:42.722Z,46.20
2018-05-02T10:52:11.617Z,46.10
2018-05-02T10:54:40.488Z,46.30
2018-05-02T10:57:09.399Z,46.80
2018-05-02T10:59:39.805Z,48.00
2018-05-02T11:02:08.719Z,48.00
2018-05-02T11:04:37.596Z,49.20
2018-05-02T11:07:07.252Z,45.60
2018-05-02T11:09:36.154Z,45.60
2018-05-02T11:12:05.788Z,46.70
2018-05-02T11:14:34.700Z,46.70
2018-05-02T11:17:03.584Z,47.40
2018-05-02T11:19:32.463Z,47.60
2018-05-02T11:22:01.382Z,49.70
2018-05-02T11:24:30.262Z,49.10
2018-05-02T11:26:59.186Z,48.30
2018-05-02T11:29:28.058Z,46.40
2018-05-02T11:31:56.971Z,46.10
2018-05-02T11:34:25.903Z,46.30
2018-05-02T11:36:54.818Z,46.90
2018-05-02T11:39:23.695Z,48.00
2018-05-02T11:41:52.591Z,48.20
2018-05-02T11:44:21.462Z,47.40
2018-05-02T11:46:50.343Z,45.60
2018-05-02T11:49:19.255Z,46.50
2018-05-02T11:51:48.124Z,47.40
2018-05-02T11:54:16.999Z,48.50
2018-05-02T11:56:45.882Z,47.00
2018-05-02T11:59:14.774Z,46.10
2018-05-02T12:01:44.464Z,45.70
2018-05-02T12:04:14.137Z,46.50
2018-05-02T12:06:43.034Z,46.50
2018-05-02T12:09:12.668Z,44.70
2018-05-02T12:11:41.564Z,44.60
2018-05-02T12:14:10.436Z,45.00
2018-05-02T12:16:39.332Z,45.30
2018-05-02T12:19:08.242Z,46.50
2018-05-02T12:21:37.128Z,45.80
2018-05-02T12:24:06.005Z,44.80
2018-05-02T12:26:34.966Z,44.80
2018-05-02T12:29:03.841Z,44.30
2018-05-02T12:31:32.723Z,45.80
2018-05-02T12:34:01.636Z,42.60
2018-05-02T12:36:30.507Z,43.20
2018-05-02T12:38:59.380Z,46.00
2018-05-02T12:41:28.272Z,43.90
2018-05-02T12:43:57.171Z,46.10
2018-05-02T12:46:26.852Z,44.00
2018-05-02T12:48:55.732Z,44.00
2018-05-02T12:51:25.372Z,42.80
2018-05-02T12:53:54.273Z,43.20
2018-05-02T12:56:23.199Z,43.60
2018-05-02T12:58:52.075Z,44.40
2018-05-02T13:01:20.952Z,42.90
2018-05-02T13:03:49.857Z,43.60
2018-05-02T13:06:18.735Z,43.80
2018-05-02T13:08:47.684Z,44.30
2018-05-02T13:11:16.556Z,46.30
2018-05-02T13:13:45.431Z,46.20
2018-05-02T13:16:14.343Z,47.90
2018-05-02T13:18:43.225Z,46.70
2018-05-02T13:21:12.087Z,46.40
2018-05-02T13:23:40.995Z,46.80
2018-05-02T13:26:09.867Z,45.70
2018-05-02T13:28:38.738Z,46.60
2018-05-02T13:31:07.648Z,46.80
2018-05-02T13:33:36.538Z,47.00
2018-05-02T13:36:05.427Z,49.30
2018-05-02T13:38:34.315Z,48.10
2018-05-02T13:41:03.230Z,49.10
2018-05-02T13:43:32.871Z,46.50
2018-05-02T13:46:01.746Z,46.50
2018-05-02T13:48:30.670Z,46.80
2018-05-02T13:51:00.316Z,46.80
2018-05-02T13:53:29.188Z,46.80
2018-05-02T13:55:58.084Z,45.20
2018-05-02T13:58:26.972Z,45.60
2018-05-02T14:00:55.933Z,46.10
2018-05-02T14:03:25.651Z,47.80
2018-05-02T14:05:55.290Z,47.00
2018-05-02T14:08:24.339Z,46.40
2018-05-02T14:10:53.874Z,46.50
2018-05-02T14:13:22.765Z,46.50
2018-05-02T14:15:51.768Z,46.50
2018-05-02T14:18:21.359Z,48.50
2018-05-02T14:20:51.034Z,46.90
2018-05-02T14:23:19.928Z,46.80
2018-05-02T14:25:49.579Z,46.70
2018-05-02T14:28:18.472Z,46.70
2018-05-02T14:30:47.345Z,47.60
2018-05-02T14:33:16.248Z,46.90
2018-05-02T14:35:45.136Z,48.60
2018-05-02T14:38:14.039Z,48.90
2018-05-02T14:40:42.954Z,49.30
2018-05-02T14:43:11.832Z,49.20
2018-05-02T14:45:40.760Z,49.10
2018-05-02T14:48:09.648Z,48.20
2018-05-02T14:50:38.549Z,49.20
2018-05-02T14:53:07.427Z,48.60
2018-05-02T14:55:36.319Z,48.50
2018-05-02T14:58:05.204Z,48.10
2018-05-02T15:00:34.864Z,49.40
2018-05-02T15:03:03.746Z,49.30
2018-05-02T15:05:32.664Z,48.90
2018-05-02T15:08:01.547Z,47.60
2018-05-02T15:10:30.415Z,47.50
2018-05-02T15:12:59.322Z,48.50
2018-05-02T15:15:28.199Z,47.10
2018-05-02T15:17:57.179Z,47.60
2018-05-02T15:20:26.072Z,47.90
2018-05-02T15:22:54.946Z,47.50
2018-05-02T15:25:23.876Z,48.40
2018-05-02T15:27:52.760Z,48.60
2018-05-02T15:30:21.631Z,49.00
2018-05-02T15:32:50.527Z,47.80
2018-05-02T15:35:19.423Z,47.60
2018-05-02T15:37:48.319Z,49.00
2018-05-02T15:40:18.055Z,47.70
2018-05-02T15:42:46.882Z,47.70
2018-05-02T15:45:15.775Z,48.80
2018-05-02T15:47:44.702Z,48.90
2018-05-02T15:50:13.604Z,49.10
2018-05-02T15:52:43.255Z,49.10
2018-05-02T15:55:12.228Z,49.10
2018-05-02T15:57:41.125Z,49.10
2018-05-02T16:00:10.030Z,49.50
2018-05-02T16:02:39.691Z,48.10
2018-05-02T16:05:08.587Z,48.10
2018-05-02T16:07:37.483Z,48.60
2018-05-02T16:10:06.396Z,48.00
2018-05-02T16:12:36.035Z,48.20
2018-05-02T16:15:06.078Z,49.80
2018-05-02T16:17:34.943Z,49.80
2018-05-02T16:20:03.887Z,48.70
2018-05-02T16:22:33.526Z,47.60
2018-05-02T16:25:02.415Z,47.60
2018-05-02T16:27:31.335Z,47.30
2018-05-02T16:30:00.987Z,48.40
2018-05-02T16:32:29.879Z,48.40
2018-05-02T16:34:58.803Z,48.60
2018-05-02T16:37:27.682Z,48.30
2018-05-02T16:39:56.585Z,50.40
2018-05-02T16:42:25.591Z,48.90
2018-05-02T16:44:54.551Z,49.60
2018-05-02T16:47:23.408Z,50.20
2018-05-02T16:49:52.362Z,50.00
2018-05-02T16:52:21.198Z,50.40
2018-05-02T16:54:50.863Z,52.90
2018-05-02T16:57:19.735Z,52.80
2018-05-02T16:59:48.659Z,52.00
2018-05-02T17:02:17.568Z,51.70
2018-05-02T17:04:46.459Z,52.50
2018-05-02T17:07:15.532Z,52.60
2018-05-02T17:09:44.501Z,52.40
2018-05-02T17:12:14.192Z,53.20
2018-05-02T17:14:43.111Z,53.10
2018-05-02T17:17:12.043Z,54.10
2018-05-02T17:19:41.308Z,54.10
2018-05-02T17:22:10.258Z,54.60
2018-05-02T17:24:39.095Z,54.20
2018-05-02T17:27:08.921Z,53.90
2018-05-02T17:29:37.801Z,54.20
2018-05-02T17:32:07.481Z,54.70
2018-05-02T17:34:36.399Z,54.60
2018-05-02T17:37:05.266Z,54.90
2018-05-02T17:39:34.194Z,59.00
2018-05-02T17:42:03.087Z,60.90
2018-05-02T17:44:32.743Z,63.30
2018-05-02T17:47:02.423Z,64.00
2018-05-02T17:49:31.287Z,64.00
2018-05-02T17:52:00.174Z,64.00
2018-05-02T17:54:29.074Z,65.80
2018-05-02T17:56:57.995Z,66.60
2018-05-02T17:59:26.875Z,66.70
2018-05-02T18:01:55.846Z,66.50
2018-05-02T18:04:24.747Z,66.60
2018-05-02T18:06:53.681Z,66.70
2018-05-02T18:09:22.885Z,68.50
2018-05-02T18:11:51.838Z,67.90
2018-05-02T18:14:21.808Z,66.00
2018-05-02T18:16:51.490Z,67.10
2018-05-02T18:19:20.372Z,67.00
2018-05-02T18:21:49.267Z,67.30
2018-05-02T18:24:18.139Z,67.70
2018-05-02T18:26:47.040Z,69.20
2018-05-02T18:29:15.988Z,71.20
2018-05-02T18:31:44.920Z,71.60
2018-05-02T18:34:13.943Z,72.70
2018-05-02T18:36:42.814Z,73.20
2018-05-02T18:39:11.687Z,72.40
2018-05-02T18:41:40.588Z,72.20
2018-05-02T18:44:10.230Z,70.60
2018-05-02T18:46:39.328Z,70.60
2018-05-02T18:49:08.204Z,71.00
2018-05-02T18:51:37.127Z,70.30
2018-05-02T18:54:06.007Z,70.30
2018-05-02T18:56:34.883Z,70.50
2018-05-02T18:59:03.807Z,70.60
2018-05-02T19:01:32.687Z,70.90
2018-05-02T19:04:01.599Z,71.10
2018-05-02T19:06:30.996Z,72.40
2018-05-02T19:08:59.871Z,72.40
2018-05-02T19:11:28.752Z,73.20
2018-05-02T19:14:01.561Z,73.40
2018-05-02T19:16:30.441Z,74.10
2018-05-02T19:19:04.753Z,74.40
2018-05-02T19:21:33.634Z,75.20
2018-05-02T19:24:03.381Z,77.00
2018-05-02T19:26:37.279Z,76.90
2018-05-02T19:29:06.249Z,76.70
2018-05-02T19:31:41.320Z,77.20
2018-05-02T19:34:11.050Z,77.50
2018-05-02T19:36:39.924Z,77.40
2018-05-02T19:39:08.942Z,76.60
2018-05-02T19:41:43.212Z,76.70
2018-05-02T19:44:12.132Z,77.60
2018-05-02T19:46:41.803Z,78.40
2018-05-02T19:49:10.688Z,78.30
2018-05-02T19:51:45.175Z,78.40
2018-05-02T19:54:14.078Z,78.40
2018-05-02T19:56:42.984Z,78.50
2018-05-02T19:59:11.884Z,78.00
2018-05-02T20:01:46.439Z,77.90
2018-05-02T20:04:15.359Z,78.40
2018-05-02T20:06:44.239Z,78.80
2018-05-02T20:09:18.936Z,78.90
2018-05-02T20:11:53.334Z,79.10
2018-05-02T20:14:22.256Z,79.40
2018-05-02T20:16:51.189Z,79.60
2018-05-02T20:19:20.088Z,79.20
2018-05-02T20:21:49.003Z,79.20
2018-05-02T20:24:18.673Z,79.40
2018-05-02T20:26:47.590Z,78.60
2018-05-02T20:29:17.229Z,75.90
2018-05-02T20:31:46.120Z,75.90
2018-05-02T20:34:15.037Z,75.50
2018-05-02T20:36:43.938Z,75.40
2018-05-02T20:39:12.854Z,75.80
2018-05-02T20:41:41.735Z,76.60
2018-05-02T20:44:10.655Z,75.90
2018-05-02T20:46:39.578Z,76.20
2018-05-02T20:49:08.457Z,76.80
2018-05-02T20:51:37.344Z,76.90
2018-05-02T20:54:06.259Z,76.70
2018-05-02T20:56:35.146Z,75.40
2018-05-02T20:59:04.083Z,73.90
2018-05-02T21:01:33.716Z,74.40
2018-05-02T21:04:02.594Z,74.30
2018-05-02T21:06:31.514Z,77.70
2018-05-02T21:09:01.168Z,82.40
2018-05-02T21:11:30.053Z,82.30
2018-05-02T21:13:59.019Z,85.40
2018-05-02T21:16:27.903Z,87.90
2018-05-02T21:18:56.784Z,90.40
2018-05-02T21:21:25.680Z,91.10
2018-05-02T21:23:55.362Z,91.90
2018-05-02T21:26:24.283Z,91.90
2018-05-02T21:28:53.159Z,92.50
2018-05-02T21:31:22.031Z,92.90
2018-05-02T21:33:50.944Z,93.40
2018-05-02T21:36:19.848Z,93.60
2018-05-02T21:38:49.492Z,93.70
2018-05-02T21:41:18.423Z,93.70
2018-05-02T21:43:47.339Z,93.90
2018-05-02T21:46:16.260Z,94.00
2018-05-02T21:48:45.159Z,93.80
2018-05-02T21:51:14.848Z,94.30
2018-05-02T21:53:44.508Z,94.60
2018-05-02T21:56:13.389Z,94.60
2018-05-02T21:58:42.287Z,93.80
2018-05-02T22:01:11.970Z,93.90
2018-05-02T22:03:41.639Z,94.30
2018-05-02T22:06:10.541Z,94.30
2018-05-02T22:08:40.228Z,95.10
2018-05-02T22:11:09.122Z,95.00
2018-05-02T22:13:38.018Z,95.10
2018-05-02T22:16:06.963Z,95.20
2018-05-02T22:18:36.620Z,95.60
2018-05-02T22:21:06.350Z,95.80
2018-05-02T22:23:35.236Z,95.80
2018-05-02T22:26:04.883Z,95.90
2018-05-02T22:28:33.795Z,95.90
2018-05-02T22:31:03.459Z,96.10
2018-05-02T22:33:32.380Z,96.10
2018-05-02T22:36:01.275Z,96.00
2018-05-02T22:38:30.150Z,96.20
2018-05-02T22:40:59.046Z,96.30
2018-05-02T22:43:27.971Z,96.30
2018-05-02T22:45:57.632Z,96.30
2018-05-02T22:48:26.516Z,96.30
2018-05-02T22:50:55.432Z,96.30
2018-05-02T22:53:24.355Z,96.30
2018-05-02T22:55:53.245Z,96.20
2018-05-02T22:58:22.936Z,96.30
2018-05-02T23:00:52.608Z,96.40
2018-05-02T23:03:21.487Z,96.20
2018-05-02T23:05:50.391Z,96.10
2018-05-02T23:08:20.063Z,96.10
2018-05-02T23:10:48.975Z,96.10
2018-05-02T23:13:17.869Z,96.30
2018-05-02T23:15:46.787Z,96.30
2018-05-02T23:18:15.723Z,96.40
2018-05-02T23:20:44.606Z,96.10
2018-05-02T23:23:13.528Z,96.30
2018-05-02T23:25:42.410Z,96.40
2018-05-02T23:28:12.082Z,96.60
2018-05-02T23:30:40.972Z,96.60
2018-05-02T23:33:10.653Z,96.80
2018-05-02T23:35:39.531Z,96.80
2018-05-02T23:38:08.411Z,96.90
2018-05-02T23:40:37.340Z,96.90
2018-05-02T23:43:06.220Z,97.50
2018-05-02T23:45:35.119Z,97.50
2018-05-02T23:48:04.036Z,97.30
2018-05-02T23:50:32.917Z,97.20
2018-05-02T23:53:01.805Z,97.30
2018-05-02T23:55:30.704Z,97.40
2018-05-02T23:57:59.584Z,97.50
